Terminal Aerodrome Forecast
Issued by NWS Omaha/Valley, NE

Home | Current Version | Previous Version | Text Only | Print | Product List | Glossary On
Versions: 1 2 3 4 5 6 7 8 9 10 11 12 13 14
000
FTUS43 KOAX 260520
TAFOMA
TAF
KOMA 260520Z 2606/2706 16003KT P6SM FEW120
     FM261200 16004KT P6SM VCSH SCT150
     FM261400 22005KT P6SM VCSH BKN150
     FM261700 31005KT P6SM SCT100=

USA.gov is the U.S. government's official web portal to all federal, state and local government web resources and services.